sim
Sign-in with your pilot id or email,
or register
Callsign
Passwort

Schedule Details

Flight Number: DLH2042
Departure: Munich Airport (EDDM) at 14:00
Arrival: Berlin Tegel Airport (EDDT) at 15:10
Route: Lufthansa Passenger Schedule. Enter filed route here before submitting Pirep.

Weather Information
Getting current METAR information for EDDM 192020Z VRB01KT CAVOK 12/10 Q1017 NOSIG
Getting current METAR information for EDDT 192020Z 07004KT 030V110 CAVOK 15/04 Q1021 NOSIG

Schedule Frequency

Route Map